createdAt,value
2022-12-20T00:01:13.417Z,51.03
2022-12-20T00:03:18.986Z,47.60
2022-12-20T00:05:24.113Z,52.95
2022-12-20T00:07:29.240Z,50.45
2022-12-20T00:09:34.559Z,52.55
2022-12-20T00:11:42.878Z,46.58
2022-12-20T00:13:50.001Z,48.53
2022-12-20T00:16:05.940Z,50.83
2022-12-20T00:18:13.792Z,52.38
2022-12-20T00:20:19.162Z,53.63
2022-12-20T00:22:24.358Z,48.22
2022-12-20T00:24:29.448Z,51.35
2022-12-20T00:26:38.078Z,50.42
2022-12-20T00:28:45.940Z,47.35
2022-12-20T00:33:02.249Z,50.17
2022-12-20T00:35:11.754Z,49.28
2022-12-20T00:37:17.732Z,55.67
2022-12-20T00:39:22.726Z,56.78
2022-12-20T00:41:30.639Z,49.15
2022-12-20T00:43:37.573Z,51.13
2022-12-20T00:45:42.933Z,49.58
2022-12-20T00:47:49.152Z,50.85
2022-12-20T00:49:54.167Z,49.85
2022-12-20T00:52:02.139Z,54.75
2022-12-20T00:54:08.064Z,52.90
2022-12-20T00:56:13.570Z,54.00
2022-12-20T00:58:18.903Z,53.75
2022-12-20T01:00:25.016Z,48.22
2022-12-20T01:02:30.182Z,54.40
2022-12-20T01:04:35.345Z,51.65
2022-12-20T01:06:40.780Z,56.30
2022-12-20T01:08:48.879Z,56.95
2022-12-20T01:11:03.196Z,51.10
2022-12-20T01:13:08.197Z,53.17
2022-12-20T01:15:15.841Z,52.30
2022-12-20T01:17:21.572Z,55.35
2022-12-20T01:19:26.564Z,55.28
2022-12-20T01:21:33.911Z,50.90
2022-12-20T01:23:39.569Z,52.38
2022-12-20T01:25:47.891Z,49.00
2022-12-20T01:27:52.921Z,54.33
2022-12-20T01:29:58.088Z,54.13
2022-12-20T01:32:03.915Z,55.92
2022-12-20T01:34:09.498Z,45.72
2022-12-20T01:36:17.613Z,51.03
2022-12-20T01:38:22.575Z,50.95
2022-12-20T01:40:27.709Z,52.75
2022-12-20T01:42:35.646Z,49.88
2022-12-20T01:47:02.553Z,52.47
2022-12-20T01:49:13.812Z,48.63
2022-12-20T01:51:19.517Z,55.05
2022-12-20T01:53:28.099Z,51.70
2022-12-20T01:55:35.661Z,54.58
2022-12-20T01:57:49.883Z,50.55
2022-12-20T01:59:56.899Z,50.70
2022-12-20T02:02:05.635Z,54.50
2022-12-20T02:04:10.871Z,54.67
2022-12-20T02:06:22.052Z,48.30
2022-12-20T02:08:27.865Z,52.42
2022-12-20T02:10:47.674Z,50.63
2022-12-20T02:13:09.916Z,50.60
2022-12-20T02:15:42.974Z,51.83
2022-12-20T02:18:00.143Z,45.92
2022-12-20T02:20:35.899Z,55.20
2022-12-20T02:23:01.926Z,47.07
2022-12-20T02:25:41.694Z,49.15
2022-12-20T02:28:03.856Z,49.20
2022-12-20T02:30:17.055Z,46.08
2022-12-20T02:32:29.535Z,53.00
2022-12-20T02:34:38.599Z,49.88
2022-12-20T02:36:44.176Z,50.97
2022-12-20T02:38:49.710Z,48.22
2022-12-20T02:41:01.172Z,50.10
2022-12-20T02:43:34.667Z,49.28
2022-12-20T02:45:39.880Z,47.80
2022-12-20T02:47:52.463Z,45.83
2022-12-20T02:49:59.908Z,48.33
2022-12-20T02:52:08.611Z,50.33
2022-12-20T02:54:14.227Z,47.88
2022-12-20T02:56:30.486Z,49.03
2022-12-20T02:58:43.144Z,47.30
2022-12-20T03:00:54.189Z,47.08
2022-12-20T03:03:12.479Z,44.85
2022-12-20T03:05:18.133Z,41.78
2022-12-20T03:07:24.481Z,43.78
2022-12-20T03:09:30.464Z,43.25
2022-12-20T03:11:35.833Z,45.15
2022-12-20T03:13:41.076Z,44.30
2022-12-20T03:15:50.296Z,44.53
2022-12-20T03:20:01.167Z,48.30
2022-12-20T03:22:06.160Z,48.97
2022-12-20T03:24:14.174Z,52.22
2022-12-20T03:26:19.297Z,49.75
2022-12-20T03:28:29.841Z,43.58
2022-12-20T03:30:36.286Z,48.13
2022-12-20T03:32:44.388Z,47.65
2022-12-20T03:34:50.685Z,51.33
2022-12-20T03:37:02.158Z,54.22
2022-12-20T03:39:07.398Z,49.97
2022-12-20T03:41:16.223Z,52.65
2022-12-20T03:43:21.143Z,53.88
2022-12-20T03:45:29.285Z,53.22
2022-12-20T03:47:35.011Z,44.97
2022-12-20T03:49:43.631Z,47.88
2022-12-20T03:51:49.911Z,43.55
2022-12-20T03:53:55.750Z,42.30
2022-12-20T03:56:06.993Z,47.03
2022-12-20T03:58:12.662Z,44.67
2022-12-20T04:00:20.636Z,46.70
2022-12-20T04:02:30.061Z,49.92
2022-12-20T04:04:35.553Z,46.17
2022-12-20T04:06:43.638Z,48.70
2022-12-20T04:08:49.598Z,52.25
2022-12-20T04:11:14.285Z,48.40
2022-12-20T04:13:23.503Z,47.85
2022-12-20T04:15:28.527Z,49.75
2022-12-20T04:17:34.793Z,48.28
2022-12-20T04:19:42.146Z,49.60
2022-12-20T04:21:49.947Z,50.03
2022-12-20T04:23:57.850Z,51.97
2022-12-20T04:26:10.479Z,46.70
2022-12-20T04:28:16.283Z,46.92
2022-12-20T04:30:21.775Z,49.47
2022-12-20T04:32:26.935Z,49.67
2022-12-20T04:34:32.051Z,48.25
2022-12-20T04:36:37.862Z,49.25
2022-12-20T04:38:50.021Z,52.45
2022-12-20T04:40:57.632Z,50.45
2022-12-20T04:43:04.381Z,51.78
2022-12-20T04:45:11.300Z,54.78
2022-12-20T04:47:16.315Z,48.83
2022-12-20T04:49:22.393Z,47.97
2022-12-20T04:51:27.584Z,49.28
2022-12-20T04:53:45.174Z,51.88
2022-12-20T04:58:03.622Z,49.50
2022-12-20T05:00:15.427Z,45.47
2022-12-20T05:02:24.064Z,49.97
2022-12-20T05:04:37.916Z,45.83
2022-12-20T05:06:43.526Z,52.95
2022-12-20T05:08:49.366Z,49.08
2022-12-20T05:10:57.627Z,52.75
2022-12-20T05:13:08.817Z,53.67
2022-12-20T05:15:19.416Z,55.08
2022-12-20T05:17:24.500Z,53.75
2022-12-20T05:19:31.724Z,54.45
2022-12-20T05:21:50.645Z,62.75
2022-12-20T05:24:08.219Z,55.15
2022-12-20T05:26:51.308Z,53.00
2022-12-20T05:28:57.608Z,52.28
2022-12-20T05:31:05.542Z,47.08
2022-12-20T05:33:13.982Z,50.88
2022-12-20T05:35:21.967Z,50.58
2022-12-20T05:37:32.792Z,50.70
2022-12-20T05:39:45.402Z,47.28
2022-12-20T05:41:59.099Z,45.15
2022-12-20T05:44:07.263Z,46.03
2022-12-20T05:46:15.486Z,51.92
2022-12-20T05:48:30.674Z,47.78
2022-12-20T05:50:36.393Z,53.90
2022-12-20T05:53:12.056Z,49.13
2022-12-20T05:55:24.554Z,58.13
2022-12-20T05:57:33.575Z,53.45
2022-12-20T05:59:38.859Z,57.08
2022-12-20T06:01:47.538Z,62.38
2022-12-20T06:03:53.613Z,62.03
2022-12-20T06:06:00.210Z,61.35
2022-12-20T06:08:11.083Z,52.20
2022-12-20T06:10:16.332Z,50.58
2022-12-20T06:12:34.993Z,49.17
2022-12-20T06:14:40.565Z,49.33
2022-12-20T06:16:45.659Z,55.13
2022-12-20T06:18:52.760Z,57.00
2022-12-20T06:20:58.046Z,53.28
2022-12-20T06:23:03.039Z,55.95
2022-12-20T06:25:15.628Z,52.42
2022-12-20T06:27:23.265Z,55.03
2022-12-20T06:29:40.884Z,54.28
2022-12-20T06:31:48.989Z,59.35
2022-12-20T06:33:55.036Z,70.05
2022-12-20T06:38:07.970Z,240.23
2022-12-20T06:40:16.759Z,166.38
2022-12-20T06:42:21.941Z,59.65
2022-12-20T06:44:27.564Z,51.05
2022-12-20T06:46:35.360Z,52.25
2022-12-20T06:50:53.744Z,51.70
2022-12-20T06:53:01.286Z,50.63
2022-12-20T06:55:07.762Z,60.45
2022-12-20T06:57:17.339Z,61.13
2022-12-20T06:59:26.033Z,64.05
2022-12-20T07:01:33.928Z,60.25
2022-12-20T07:03:38.954Z,54.05
2022-12-20T07:05:45.069Z,54.60
2022-12-20T07:07:50.202Z,63.00
2022-12-20T07:09:55.551Z,55.47
2022-12-20T07:12:00.662Z,65.15
2022-12-20T07:14:06.190Z,62.53
2022-12-20T07:16:11.468Z,51.47
2022-12-20T07:18:19.395Z,58.03
2022-12-20T07:20:24.947Z,53.40
2022-12-20T07:22:30.130Z,53.90
2022-12-20T07:24:35.075Z,60.17
2022-12-20T07:26:40.036Z,61.17
2022-12-20T07:28:45.735Z,58.22
2022-12-20T07:30:50.706Z,54.42
2022-12-20T07:32:55.750Z,51.70
2022-12-20T07:35:03.811Z,59.45
2022-12-20T07:37:08.792Z,60.22
2022-12-20T07:39:13.898Z,58.53
2022-12-20T07:41:20.744Z,59.78
2022-12-20T07:43:25.790Z,63.30
2022-12-20T07:45:31.133Z,62.97
2022-12-20T07:47:36.727Z,64.60
2022-12-20T07:49:41.705Z,70.90
2022-12-20T07:51:53.297Z,74.57
2022-12-20T07:54:05.135Z,59.78
2022-12-20T07:56:13.788Z,54.78
2022-12-20T07:58:21.641Z,48.58
2022-12-20T08:00:27.305Z,49.42
2022-12-20T08:02:38.483Z,49.20
2022-12-20T08:04:44.763Z,51.15
2022-12-20T08:06:55.831Z,53.13
2022-12-20T08:09:05.519Z,52.45
2022-12-20T08:11:13.498Z,56.78
2022-12-20T08:15:23.956Z,69.38
2022-12-20T08:17:29.233Z,66.05
2022-12-20T08:19:34.402Z,56.78
2022-12-20T08:21:39.879Z,62.47
2022-12-20T08:23:47.535Z,48.97
2022-12-20T08:25:52.632Z,45.40
2022-12-20T08:27:57.634Z,44.35
2022-12-20T08:30:02.665Z,44.95
2022-12-20T08:32:07.838Z,45.63
2022-12-20T08:34:14.316Z,48.97
2022-12-20T08:36:19.839Z,52.15
2022-12-20T08:38:24.821Z,43.92
2022-12-20T08:40:32.371Z,47.97
2022-12-20T08:42:37.379Z,51.22
2022-12-20T08:44:42.334Z,44.38
2022-12-20T08:46:47.551Z,45.67
2022-12-20T08:48:52.514Z,45.30
2022-12-20T08:50:59.469Z,44.00
2022-12-20T08:53:04.859Z,40.92
2022-12-20T08:55:13.072Z,39.55
2022-12-20T08:57:20.894Z,41.72
2022-12-20T08:59:26.710Z,40.50
2022-12-20T09:01:33.979Z,43.50
2022-12-20T09:03:40.563Z,41.70
2022-12-20T09:05:49.976Z,41.55
2022-12-20T09:07:54.958Z,39.40
2022-12-20T09:09:59.983Z,39.13
2022-12-20T09:12:05.061Z,38.55
2022-12-20T09:14:12.818Z,38.30
2022-12-20T09:16:21.115Z,41.90
2022-12-20T09:18:26.646Z,39.15
2022-12-20T09:20:31.783Z,35.80
2022-12-20T09:22:36.759Z,42.83
2022-12-20T09:24:42.112Z,35.42
2022-12-20T09:26:49.183Z,31.42
2022-12-20T09:28:56.211Z,39.00
2022-12-20T09:31:05.681Z,35.40
2022-12-20T09:33:10.844Z,36.13
2022-12-20T09:35:22.609Z,32.38
2022-12-20T09:37:29.844Z,35.72
2022-12-20T09:39:35.039Z,33.33
2022-12-20T09:41:43.216Z,36.13
2022-12-20T09:43:49.223Z,34.88
2022-12-20T09:45:58.894Z,38.03
2022-12-20T09:48:07.843Z,34.20
2022-12-20T09:50:20.316Z,35.15
2022-12-20T09:52:46.982Z,34.40
2022-12-20T09:55:10.563Z,31.92
2022-12-20T09:57:27.606Z,32.03
2022-12-20T09:59:38.395Z,27.45
2022-12-20T10:01:48.933Z,31.40
2022-12-20T10:03:59.159Z,32.45
2022-12-20T10:06:11.776Z,31.05
2022-12-20T10:08:38.484Z,30.90
2022-12-20T10:10:59.566Z,29.17
2022-12-20T10:13:17.272Z,30.50
2022-12-20T10:17:49.542Z,28.67
2022-12-20T10:20:25.142Z,27.58
2022-12-20T10:22:40.754Z,26.50
2022-12-20T10:25:01.509Z,28.13
2022-12-20T10:27:16.938Z,28.15
2022-12-20T10:29:23.803Z,30.25
2022-12-20T10:31:30.556Z,30.15
2022-12-20T10:33:35.947Z,28.42
2022-12-20T10:35:45.524Z,25.75
2022-12-20T10:38:10.436Z,25.95
2022-12-20T10:41:01.357Z,27.75
2022-12-20T10:42:57.875Z,27.73
2022-12-20T10:45:03.337Z,30.10
2022-12-20T10:47:37.558Z,27.33
2022-12-20T10:49:43.507Z,33.17
2022-12-20T10:51:58.950Z,27.02
2022-12-20T10:54:05.923Z,28.23
2022-12-20T10:56:23.522Z,27.60
2022-12-20T10:58:40.347Z,27.73
2022-12-20T11:00:45.829Z,27.83
2022-12-20T11:03:10.414Z,32.00
2022-12-20T11:05:27.102Z,25.23
2022-12-20T11:07:36.906Z,29.05
2022-12-20T11:09:42.113Z,25.75
2022-12-20T11:12:02.416Z,28.65
2022-12-20T11:14:18.151Z,29.60
2022-12-20T11:16:37.970Z,25.65
2022-12-20T11:18:54.963Z,29.42
2022-12-20T11:21:17.166Z,26.48
2022-12-20T11:23:38.131Z,25.80
2022-12-20T11:26:11.423Z,27.50
2022-12-20T11:28:45.700Z,27.08
2022-12-20T11:31:02.068Z,31.63
2022-12-20T11:33:41.086Z,38.65
2022-12-20T11:35:57.578Z,32.13
2022-12-20T11:38:26.158Z,36.00
2022-12-20T11:40:39.023Z,32.40
2022-12-20T11:43:03.404Z,36.53
2022-12-20T11:45:18.106Z,37.83
2022-12-20T11:48:06.146Z,37.42
2022-12-20T11:50:33.884Z,34.75
2022-12-20T11:52:44.136Z,35.45
2022-12-20T11:54:59.431Z,37.22
2022-12-20T11:57:16.616Z,36.60
2022-12-20T11:59:31.609Z,35.83
2022-12-20T12:01:44.536Z,36.40
2022-12-20T12:04:04.246Z,27.25
2022-12-20T12:06:14.720Z,30.00
2022-12-20T12:08:24.400Z,29.15
2022-12-20T12:10:34.095Z,27.20
2022-12-20T12:12:47.266Z,25.52
2022-12-20T12:15:01.544Z,24.95
2022-12-20T12:17:14.700Z,27.02
2022-12-20T12:19:20.134Z,27.25
2022-12-20T12:21:28.642Z,28.60
2022-12-20T12:23:42.434Z,28.27
2022-12-20T12:25:47.508Z,31.70
2022-12-20T12:27:55.516Z,26.33
2022-12-20T12:30:02.061Z,26.15
2022-12-20T12:32:13.300Z,29.08
2022-12-20T12:34:35.431Z,28.65
2022-12-20T12:37:08.001Z,30.85
2022-12-20T12:39:49.077Z,29.75
2022-12-20T12:43:02.292Z,29.17
2022-12-20T12:45:18.725Z,28.45
2022-12-20T12:47:31.215Z,29.83
2022-12-20T12:49:37.970Z,25.17
2022-12-20T12:51:52.352Z,30.02
2022-12-20T12:54:15.091Z,28.70
2022-12-20T12:56:44.385Z,28.65
2022-12-20T12:59:53.463Z,25.23
2022-12-20T13:02:54.626Z,30.20
2022-12-20T13:05:04.246Z,30.88
2022-12-20T13:07:43.690Z,27.30
2022-12-20T13:09:49.201Z,29.50
2022-12-20T13:12:00.398Z,29.25
2022-12-20T13:14:55.141Z,31.77
2022-12-20T13:17:51.263Z,27.92
2022-12-20T13:19:58.727Z,33.63
2022-12-20T13:22:23.720Z,29.60
2022-12-20T13:24:42.389Z,31.70
2022-12-20T13:26:56.354Z,27.67
2022-12-20T13:29:28.900Z,34.90
2022-12-20T13:31:36.213Z,28.00
2022-12-20T13:33:45.031Z,30.70
2022-12-20T13:36:05.808Z,28.20
2022-12-20T13:38:59.564Z,27.92
2022-12-20T13:41:12.193Z,33.00
2022-12-20T13:43:30.990Z,28.25
2022-12-20T13:45:41.685Z,27.52
2022-12-20T13:47:53.862Z,30.70
2022-12-20T13:50:02.994Z,32.38
2022-12-20T13:52:31.283Z,31.50
2022-12-20T13:54:36.686Z,29.15
2022-12-20T13:56:49.406Z,31.50
2022-12-20T13:58:54.575Z,29.77
2022-12-20T14:01:10.164Z,28.08
2022-12-20T14:03:25.480Z,27.13
2022-12-20T14:05:36.968Z,25.02
2022-12-20T14:07:42.476Z,28.55
2022-12-20T14:09:49.971Z,29.95
2022-12-20T14:11:55.061Z,29.95
2022-12-20T14:14:01.874Z,25.73
2022-12-20T14:16:18.148Z,26.17
2022-12-20T14:18:26.833Z,22.50
2022-12-20T14:24:46.899Z,24.00
2022-12-20T14:26:59.332Z,26.50
2022-12-20T14:29:06.632Z,28.85
2022-12-20T14:31:28.809Z,30.50
2022-12-20T14:33:39.942Z,32.45
2022-12-20T14:35:51.087Z,29.30
2022-12-20T14:37:59.656Z,33.50
2022-12-20T14:40:17.829Z,42.25
2022-12-20T14:42:26.533Z,36.60
2022-12-20T14:44:34.467Z,27.60
2022-12-20T14:49:17.827Z,28.60
2022-12-20T14:51:24.316Z,28.05
2022-12-20T14:53:30.349Z,27.05
2022-12-20T14:55:42.656Z,28.90
2022-12-20T14:57:52.027Z,26.17
2022-12-20T15:00:07.537Z,23.60
2022-12-20T15:02:44.786Z,22.60
2022-12-20T15:04:52.490Z,25.52
2022-12-20T15:06:57.952Z,24.13
2022-12-20T15:09:02.976Z,23.38
2022-12-20T15:11:23.035Z,21.98
2022-12-20T15:13:34.650Z,28.00
2022-12-20T15:15:40.324Z,25.27
2022-12-20T15:17:48.119Z,27.65
2022-12-20T15:19:54.222Z,30.98
2022-12-20T15:21:59.980Z,26.65
2022-12-20T15:24:12.493Z,26.00
2022-12-20T15:26:19.785Z,29.50
2022-12-20T15:28:27.736Z,31.48
2022-12-20T15:30:32.917Z,27.45
2022-12-20T15:32:53.279Z,25.10
2022-12-20T15:35:03.017Z,30.67
2022-12-20T15:37:11.363Z,29.40
2022-12-20T15:39:21.624Z,30.48
2022-12-20T15:41:30.255Z,29.33
2022-12-20T15:43:41.474Z,31.45
2022-12-20T15:45:49.792Z,28.00
2022-12-20T15:47:54.775Z,32.08
2022-12-20T15:50:03.257Z,31.13
2022-12-20T15:52:08.668Z,30.92
2022-12-20T15:54:27.287Z,30.63
2022-12-20T15:56:33.146Z,31.10
2022-12-20T15:58:38.274Z,31.33
2022-12-20T16:00:44.661Z,32.53
2022-12-20T16:02:52.331Z,32.95
2022-12-20T16:04:58.904Z,33.50
2022-12-20T16:07:12.319Z,29.47
2022-12-20T16:09:18.060Z,26.55
2022-12-20T16:11:28.033Z,29.52
2022-12-20T16:13:33.074Z,27.30
2022-12-20T16:15:38.186Z,25.73
2022-12-20T16:17:43.192Z,31.25
2022-12-20T16:19:48.876Z,31.92
2022-12-20T16:21:59.022Z,30.02
2022-12-20T16:24:07.231Z,30.13
2022-12-20T16:26:16.571Z,32.78
2022-12-20T16:28:22.063Z,30.20
2022-12-20T16:30:28.185Z,29.17
2022-12-20T16:32:33.519Z,34.45
2022-12-20T16:34:38.638Z,33.17
2022-12-20T16:36:44.944Z,30.10
2022-12-20T16:38:50.191Z,38.42
2022-12-20T16:40:57.739Z,36.35
2022-12-20T16:43:04.243Z,31.10
2022-12-20T16:45:16.314Z,33.08
2022-12-20T16:47:21.773Z,31.10
2022-12-20T16:49:26.732Z,26.85
2022-12-20T16:51:34.482Z,29.08
2022-12-20T16:54:09.949Z,31.27
2022-12-20T16:56:08.489Z,26.48
2022-12-20T16:58:13.459Z,32.33
2022-12-20T17:00:22.826Z,29.92
2022-12-20T17:02:31.824Z,35.78
2022-12-20T17:04:38.071Z,36.22
2022-12-20T17:06:43.496Z,30.65
2022-12-20T17:08:52.767Z,35.53
2022-12-20T17:10:57.720Z,36.85
2022-12-20T17:13:05.227Z,36.75
2022-12-20T17:15:23.088Z,43.22
2022-12-20T17:17:28.437Z,40.05
2022-12-20T17:19:33.449Z,40.13
2022-12-20T17:24:01.268Z,47.72
2022-12-20T17:26:06.555Z,53.05
2022-12-20T17:28:14.096Z,56.70
2022-12-20T17:32:27.975Z,50.83
2022-12-20T17:34:33.764Z,53.97
2022-12-20T17:36:39.125Z,46.25
2022-12-20T17:38:44.174Z,51.75
2022-12-20T17:40:49.193Z,51.00
2022-12-20T17:42:55.246Z,46.85
2022-12-20T17:45:03.511Z,54.17
2022-12-20T17:49:15.438Z,44.83
2022-12-20T17:51:23.875Z,43.83
2022-12-20T17:53:29.545Z,50.70
2022-12-20T17:55:34.922Z,43.30
2022-12-20T17:57:40.553Z,41.50
2022-12-20T17:59:46.983Z,32.97
2022-12-20T18:01:55.252Z,35.92
2022-12-20T18:04:05.068Z,42.67
2022-12-20T18:06:12.873Z,34.47
2022-12-20T18:08:21.194Z,34.95
2022-12-20T18:10:26.895Z,38.85
2022-12-20T18:12:37.199Z,34.53
2022-12-20T18:14:42.635Z,27.52
2022-12-20T18:16:47.961Z,31.73
2022-12-20T18:18:56.717Z,33.55
2022-12-20T18:21:06.109Z,34.72
2022-12-20T18:23:11.243Z,33.47
2022-12-20T18:25:18.604Z,31.92
2022-12-20T18:27:28.691Z,34.47
2022-12-20T18:29:35.791Z,36.70
2022-12-20T18:31:41.603Z,41.42
2022-12-20T18:33:49.083Z,41.65
2022-12-20T18:36:08.891Z,41.10
2022-12-20T18:38:13.863Z,30.88
2022-12-20T18:40:19.390Z,40.95
2022-12-20T18:42:24.596Z,44.40
2022-12-20T18:44:30.972Z,39.55
2022-12-20T18:46:36.632Z,42.30
2022-12-20T18:48:42.241Z,43.00
2022-12-20T18:50:48.282Z,36.72
2022-12-20T18:53:01.344Z,35.72
2022-12-20T18:55:07.898Z,42.92
2022-12-20T18:57:13.305Z,41.10
2022-12-20T18:59:18.704Z,43.22
2022-12-20T19:01:26.881Z,42.85
2022-12-20T19:03:32.384Z,44.88
2022-12-20T19:05:38.058Z,45.65
2022-12-20T19:07:43.723Z,51.22
2022-12-20T19:09:51.258Z,54.17
2022-12-20T19:11:57.776Z,62.80
2022-12-20T19:14:03.705Z,53.47
2022-12-20T19:16:13.106Z,63.20
2022-12-20T19:18:19.045Z,42.38
2022-12-20T19:20:24.732Z,35.70
2022-12-20T19:22:29.723Z,39.38
2022-12-20T19:24:34.729Z,35.42
2022-12-20T19:26:42.770Z,33.67
2022-12-20T19:28:48.088Z,36.63
2022-12-20T19:30:54.063Z,30.92
2022-12-20T19:32:59.294Z,28.80
2022-12-20T19:35:29.952Z,28.77
2022-12-20T19:37:36.973Z,29.77
2022-12-20T19:39:42.601Z,30.27
2022-12-20T19:42:19.305Z,27.17
2022-12-20T19:44:17.168Z,25.98
2022-12-20T19:46:28.261Z,26.05
2022-12-20T19:48:36.114Z,26.17
2022-12-20T19:50:43.167Z,26.48
2022-12-20T19:52:48.199Z,24.83
2022-12-20T19:54:53.180Z,23.42
2022-12-20T19:57:01.174Z,30.17
2022-12-20T19:59:06.411Z,28.35
2022-12-20T20:01:12.757Z,27.63
2022-12-20T20:03:18.252Z,30.15
2022-12-20T20:05:23.974Z,30.02
2022-12-20T20:07:29.070Z,27.98
2022-12-20T20:09:34.173Z,29.23
2022-12-20T20:11:41.423Z,29.20
2022-12-20T20:13:50.270Z,31.08
2022-12-20T20:15:57.237Z,38.78
2022-12-20T20:20:10.599Z,28.10
2022-12-20T20:22:22.524Z,27.48
2022-12-20T20:24:28.230Z,29.10
2022-12-20T20:26:34.408Z,29.00
2022-12-20T20:28:44.914Z,30.58
2022-12-20T20:30:54.476Z,26.38
2022-12-20T20:32:59.990Z,28.52
2022-12-20T20:35:05.352Z,32.30
2022-12-20T20:37:11.120Z,28.13
2022-12-20T20:39:16.253Z,26.38
2022-12-20T20:41:22.678Z,23.80
2022-12-20T20:43:30.134Z,25.70
2022-12-20T20:45:35.551Z,27.00
2022-12-20T20:47:44.528Z,29.42
2022-12-20T20:49:49.991Z,32.00
2022-12-20T20:51:55.460Z,27.77
2022-12-20T20:54:00.730Z,25.27
2022-12-20T20:56:07.329Z,27.95
2022-12-20T20:58:12.360Z,31.30
2022-12-20T21:00:19.291Z,29.50
2022-12-20T21:02:24.651Z,34.38
2022-12-20T21:04:32.722Z,29.73
2022-12-20T21:08:48.154Z,30.27
2022-12-20T21:10:53.847Z,31.17
2022-12-20T21:12:59.265Z,27.67
2022-12-20T21:15:24.315Z,31.65
2022-12-20T21:17:29.793Z,30.75
2022-12-20T21:19:37.255Z,31.00
2022-12-20T21:21:42.367Z,34.33
2022-12-20T21:23:48.737Z,31.45
2022-12-20T21:25:59.496Z,34.45
2022-12-20T21:28:04.702Z,31.00
2022-12-20T21:30:11.696Z,31.10
2022-12-20T21:32:16.900Z,30.40
2022-12-20T21:34:22.912Z,34.17
2022-12-20T21:36:30.917Z,34.15
2022-12-20T21:40:41.363Z,35.65
2022-12-20T21:42:46.503Z,34.85
2022-12-20T21:44:51.544Z,31.08
2022-12-20T21:46:56.423Z,35.60
2022-12-20T21:49:02.793Z,30.70
2022-12-20T21:51:11.575Z,34.70
2022-12-20T21:53:19.742Z,33.10
2022-12-20T21:55:25.062Z,35.92
2022-12-20T21:57:30.234Z,32.30
2022-12-20T21:59:35.105Z,34.85
2022-12-20T22:01:40.418Z,36.75
2022-12-20T22:03:46.328Z,33.17
2022-12-20T22:05:52.338Z,39.65
2022-12-20T22:07:57.379Z,36.10
2022-12-20T22:10:04.855Z,34.65
2022-12-20T22:12:09.713Z,34.85
2022-12-20T22:14:16.159Z,33.03
2022-12-20T22:16:25.946Z,35.90
2022-12-20T22:18:31.265Z,32.85
2022-12-20T22:20:37.213Z,35.03
2022-12-20T22:22:42.077Z,32.42
2022-12-20T22:24:47.038Z,35.13
2022-12-20T22:26:55.102Z,30.67
2022-12-20T22:29:02.783Z,33.97
2022-12-20T22:31:11.448Z,36.03
2022-12-20T22:33:16.319Z,33.13
2022-12-20T22:35:23.111Z,35.50
2022-12-20T22:37:28.803Z,33.15
2022-12-20T22:39:33.639Z,31.23
2022-12-20T22:41:41.590Z,33.00
2022-12-20T22:43:49.679Z,34.17
2022-12-20T22:45:59.973Z,33.47
2022-12-20T22:48:07.129Z,39.35
2022-12-20T22:50:13.716Z,33.65
2022-12-20T22:52:19.225Z,32.20
2022-12-20T22:54:24.903Z,33.83
2022-12-20T22:56:31.003Z,33.15
2022-12-20T22:58:37.793Z,30.20
2022-12-20T23:00:45.405Z,34.70
2022-12-20T23:02:51.870Z,37.80
2022-12-20T23:04:57.234Z,36.97
2022-12-20T23:07:02.132Z,33.80
2022-12-20T23:09:07.332Z,38.13
2022-12-20T23:11:32.314Z,32.53
2022-12-20T23:13:49.724Z,39.85
2022-12-20T23:15:57.214Z,32.65
2022-12-20T23:18:02.094Z,38.28
2022-12-20T23:20:21.422Z,33.38
2022-12-20T23:22:43.129Z,35.35
2022-12-20T23:24:49.630Z,37.03
2022-12-20T23:26:54.496Z,35.53
2022-12-20T23:28:59.625Z,37.90
2022-12-20T23:31:09.097Z,35.67
2022-12-20T23:33:14.004Z,34.45
2022-12-20T23:35:22.186Z,38.75
2022-12-20T23:37:27.091Z,38.10
2022-12-20T23:39:31.932Z,35.55
2022-12-20T23:41:37.005Z,40.88
2022-12-20T23:43:41.913Z,38.22
2022-12-20T23:45:46.935Z,42.10
2022-12-20T23:47:54.364Z,40.25
2022-12-20T23:49:59.263Z,40.13
2022-12-20T23:52:04.284Z,34.92
2022-12-20T23:54:09.298Z,41.08
2022-12-20T23:56:16.766Z,37.10
2022-12-20T23:58:21.969Z,34.53
